Time;durP1;ratioP1;P1;durP2;ratioP2;P2;SDS_P1;SDS_P2;PMS_P1;PMS_P2;Temp;Humidity;BMP_temperature;BMP_pressure;BME280_temperature;BME280_humidity;BME280_pressure;Samples;Min_cycle;Max_cycle;Signal;HPM_P1;HPM_P2
2023/01/05 05:22:42;;;;;;;0.22;0.22;;;;;;;10.23;100.00;100739.22;5088955;28;20332;-67
2023/01/05 05:25:09;;;;;;;0.65;0.20;;;;;;;10.26;100.00;100737.06;5071105;28;20039;-67
2023/01/05 05:27:40;;;;;;;0.38;0.38;;;;;;;10.29;100.00;100743.91;5087303;28;20488;-67
2023/01/05 05:30:06;;;;;;;0.20;0.20;;;;;;;10.32;100.00;100744.44;5088892;28;20043;-67
2023/01/05 05:32:31;;;;;;;0.75;0.32;;;;;;;10.31;100.00;100752.59;5089188;28;20036;-65
2023/01/05 05:34:56;;;;;;;0.28;0.28;;;;;;;10.34;100.00;100757.56;5088904;28;20105;-66
2023/01/05 05:37:22;;;;;;;0.45;0.40;;;;;;;10.38;100.00;100760.75;5088530;28;20040;-67
2023/01/05 05:39:47;;;;;;;0.30;0.30;;;;;;;10.41;100.00;100763.09;5088844;28;20044;-65
2023/01/05 05:42:13;;;;;;;0.70;0.40;;;;;;;10.40;100.00;100761.44;5088806;28;20484;-68
2023/01/05 05:44:38;;;;;;;1.45;0.55;;;;;;;10.41;100.00;100771.09;5088616;28;20058;-67
2023/01/05 05:47:03;;;;;;;0.40;0.35;;;;;;;10.41;100.00;100774.59;5088530;28;20040;-67
2023/01/05 05:49:29;;;;;;;0.45;0.40;;;;;;;10.44;100.00;100758.31;5088528;28;20519;-67
2023/01/05 05:51:54;;;;;;;0.20;0.20;;;;;;;10.42;100.00;100768.25;5088589;28;20033;-66
2023/01/05 05:54:19;;;;;;;0.40;0.30;;;;;;;10.39;100.00;100776.56;5088520;28;20046;-66
2023/01/05 05:56:45;;;;;;;0.20;0.20;;;;;;;10.41;100.00;100771.91;5088413;28;20123;-67
2023/01/05 05:59:10;;;;;;;0.20;0.20;;;;;;;10.42;100.00;100780.75;5088268;28;20051;-67
2023/01/05 06:01:36;;;;;;;0.35;0.28;;;;;;;10.41;100.00;100784.41;5088440;28;20035;-67
2023/01/05 06:04:01;;;;;;;0.20;0.20;;;;;;;10.44;100.00;100784.09;5088688;28;20497;-67
2023/01/05 06:06:26;;;;;;;1.02;0.32;;;;;;;10.44;100.00;100789.44;5086959;28;20056;-66
2023/01/05 06:08:52;;;;;;;0.32;0.22;;;;;;;10.43;100.00;100788.59;5088072;28;20488;-66
2023/01/05 06:11:17;;;;;;;0.45;0.32;;;;;;;10.41;100.00;100793.22;5088373;28;20500;-66
2023/01/05 06:13:43;;;;;;;0.38;0.22;;;;;;;10.42;100.00;100799.38;5088147;28;20036;-67
2023/01/05 06:16:08;;;;;;;0.82;0.63;;;;;;;10.43;100.00;100804.56;5088097;28;20131;-68
2023/01/05 06:18:34;;;;;;;0.30;0.30;;;;;;;10.37;100.00;100818.53;5087818;28;20129;-68
2023/01/05 06:20:59;;;;;;;0.30;0.30;;;;;;;10.39;100.00;100816.53;5087900;28;20044;-66
2023/01/05 06:23:24;;;;;;;0.38;0.32;;;;;;;10.37;100.00;100815.84;5088043;28;20032;-67
2023/01/05 06:25:50;;;;;;;0.60;0.55;;;;;;;10.36;100.00;100819.50;5087979;28;20443;-67
2023/01/05 06:28:15;;;;;;;0.50;0.50;;;;;;;10.35;100.00;100828.47;5087616;28;20035;-66
2023/01/05 06:30:40;;;;;;;0.20;0.20;;;;;;;10.34;100.00;100829.47;5088211;28;20531;-66
2023/01/05 06:33:06;;;;;;;2.10;0.70;;;;;;;10.34;100.00;100837.47;5079927;28;20044;-67
2023/01/05 06:35:31;;;;;;;0.20;0.20;;;;;;;10.37;100.00;100842.50;5074214;28;20123;-66
2023/01/05 06:37:57;;;;;;;0.63;0.55;;;;;;;10.30;100.00;100839.63;5074020;28;20044;-66
2023/01/05 06:40:23;;;;;;;0.63;0.32;;;;;;;10.32;100.00;100834.13;5072954;28;20043;-66
2023/01/05 06:42:48;;;;;;;0.40;0.30;;;;;;;10.32;100.00;100829.63;5074263;28;20032;-67
2023/01/05 06:45:17;;;;;;;0.65;0.40;;;;;;;10.38;100.00;100840.66;5072895;28;20046;-67
2023/01/05 06:47:43;;;;;;;1.08;0.55;;;;;;;10.37;100.00;100836.31;5067740;28;20033;-67
2023/01/05 06:50:08;;;;;;;0.68;0.50;;;;;;;10.37;100.00;100833.63;5071075;28;20032;-68
2023/01/05 06:52:38;;;;;;;0.88;0.63;;;;;;;10.32;100.00;100842.13;5074152;28;20046;-66
2023/01/05 06:55:08;;;;;;;0.30;0.30;;;;;;;10.32;100.00;100840.28;5074232;28;20048;-66
2023/01/05 06:57:35;;;;;;;0.45;0.40;;;;;;;10.32;100.00;100844.78;5073616;28;20509;-67
2023/01/05 07:00:10;;;;;;;0.70;0.50;;;;;;;10.35;100.00;100841.78;5065901;28;20060;-67
2023/01/05 07:02:36;;;;;;;0.30;0.30;;;;;;;10.35;100.00;100836.47;5053756;28;20048;-68
2023/01/05 07:05:02;;;;;;;1.75;0.50;;;;;;;10.36;100.00;100832.81;5053718;28;20040;-68
2023/01/05 07:07:27;;;;;;;0.40;0.40;;;;;;;10.37;100.00;100830.97;5053544;28;20551;-67
2023/01/05 07:09:53;;;;;;;0.65;0.47;;;;;;;10.37;100.00;100836.31;5053629;28;20064;-68
2023/01/05 07:12:18;;;;;;;0.60;0.50;;;;;;;10.36;100.00;100829.31;5053689;28;20033;-66
2023/01/05 07:14:44;;;;;;;0.57;0.50;;;;;;;10.36;100.00;100838.13;5053569;28;20478;-66
2023/01/05 07:17:11;;;;;;;0.60;0.50;;;;;;;10.40;100.00;100839.50;5053195;28;20036;-66
2023/01/05 07:19:37;;;;;;;0.30;0.30;;;;;;;10.41;100.00;100838.50;5053574;28;20033;-66
2023/01/05 07:22:03;;;;;;;0.70;0.40;;;;;;;10.38;100.00;100840.66;5053445;28;20409;-66
2023/01/05 07:24:28;;;;;;;0.10;0.10;;;;;;;10.38;100.00;100849.47;5053428;28;20163;-67
2023/01/05 07:26:54;;;;;;;0.32;0.32;;;;;;;10.39;100.00;100852.97;5053194;28;20029;-67
2023/01/05 07:29:19;;;;;;;0.75;0.60;;;;;;;10.39;100.00;100856.47;5053129;28;20125;-68
2023/01/05 07:31:46;;;;;;;0.40;0.40;;;;;;;10.41;100.00;100859.81;5053364;28;20044;-68
2023/01/05 07:34:12;;;;;;;1.40;0.57;;;;;;;10.45;100.00;100860.34;5053333;28;20044;-66
2023/01/05 07:36:38;;;;;;;0.75;0.43;;;;;;;10.43;100.00;100846.31;5053158;28;20045;-67
2023/01/05 07:39:03;;;;;;;0.22;0.22;;;;;;;10.44;100.00;100851.50;5052730;28;20044;-67
2023/01/05 07:41:28;;;;;;;0.45;0.30;;;;;;;10.43;100.00;100857.84;5053160;28;20072;-68
2023/01/05 07:43:54;;;;;;;0.50;0.45;;;;;;;10.45;100.00;100861.19;5052468;28;20037;-67
2023/01/05 07:46:19;;;;;;;0.40;0.35;;;;;;;10.44;100.00;100867.50;5052451;28;20041;-65
2023/01/05 07:48:44;;;;;;;1.02;0.40;;;;;;;10.45;100.00;100876.31;5052583;28;20039;-65
2023/01/05 07:51:10;;;;;;;1.48;0.52;;;;;;;10.45;100.00;100877.16;5052757;28;20120;-66
2023/01/05 07:53:37;;;;;;;1.58;0.30;;;;;;;10.49;100.00;100880.31;5052816;28;20044;-66
2023/01/05 07:56:05;;;;;;;0.50;0.40;;;;;;;10.48;100.00;100892.81;5052769;28;20090;-66
2023/01/05 07:58:32;;;;;;;2.38;0.32;;;;;;;10.51;100.00;100881.84;5052319;28;20454;-65
2023/01/05 08:01:05;;;;;;;0.68;0.68;;;;;;;10.53;100.00;100879.84;5052665;28;20029;-66
2023/01/05 08:03:32;;;;;;;1.45;0.40;;;;;;;10.60;100.00;100886.22;5052607;28;20090;-65
2023/01/05 08:06:09;;;;;;;1.08;0.55;;;;;;;10.59;100.00;100884.56;5052516;28;20141;-66
2023/01/05 08:08:35;;;;;;;1.25;0.40;;;;;;;10.63;100.00;100884.22;5052216;28;20033;-66
2023/01/05 08:11:05;;;;;;;1.00;0.52;;;;;;;10.64;100.00;100888.59;5052481;28;20108;-65
2023/01/05 08:16:14;;;;;;;5.53;0.52;;;;;;;10.74;100.00;100889.28;5052226;28;20041;-66
2023/01/05 08:18:40;;;;;;;1.10;0.73;;;;;;;10.75;100.00;100883.78;5052180;28;20052;-55
2023/01/05 08:21:08;;;;;;;3.30;0.85;;;;;;;10.78;100.00;100886.16;5052322;28;20112;-57
2023/01/05 08:23:36;;;;;;;1.42;0.65;;;;;;;10.85;100.00;100889.03;5051147;28;20693;-56
2023/01/05 08:26:04;;;;;;;1.15;1.00;;;;;;;10.88;100.00;100889.53;5052143;28;20504;-55
2023/01/05 08:28:30;;;;;;;1.48;0.60;;;;;;;10.93;100.00;100891.72;5051896;28;20033;-68
2023/01/05 08:31:07;;;;;;;2.03;1.15;;;;;;;10.96;100.00;100906.56;5052135;28;20040;-67
2023/01/05 08:33:33;;;;;;;8.68;1.70;;;;;;;10.96;100.00;100906.56;5052120;28;20120;-67
2023/01/05 08:35:59;;;;;;;2.30;0.70;;;;;;;10.93;100.00;100909.53;5051939;28;20111;-66
2023/01/05 08:38:24;;;;;;;1.63;0.65;;;;;;;11.02;100.00;100914.78;5050455;28;20043;-66
2023/01/05 08:40:50;;;;;;;4.95;0.85;;;;;;;11.04;100.00;100922.59;5051860;28;20041;-67
2023/01/05 08:43:16;;;;;;;1.60;0.90;;;;;;;11.10;100.00;100935.28;5051788;28;20508;-67
2023/01/05 08:45:42;;;;;;;1.33;0.60;;;;;;;11.06;100.00;100932.09;5051652;28;20375;-66
2023/01/05 08:48:09;;;;;;;4.45;1.33;;;;;;;11.13;100.00;100941.13;5051465;28;20047;-66
2023/01/05 08:50:35;;;;;;;5.90;1.10;;;;;;;11.06;100.00;100950.75;5051789;28;20079;-65
2023/01/05 08:53:00;;;;;;;3.22;1.60;;;;;;;11.12;100.00;100954.63;5051715;28;20045;-67
2023/01/05 08:55:26;;;;;;;4.85;1.50;;;;;;;11.08;100.00;100967.47;5051381;28;20052;-67
2023/01/05 08:57:51;;;;;;;3.05;0.85;;;;;;;11.13;100.00;100970.47;5051297;28;20041;-66
2023/01/05 09:00:17;;;;;;;4.55;0.88;;;;;;;11.06;100.00;100963.25;5051657;28;20037;-67
2023/01/05 09:02:43;;;;;;;3.08;1.02;;;;;;;11.11;100.00;100975.13;5051644;28;20048;-66
2023/01/05 09:05:09;;;;;;;1.45;0.93;;;;;;;11.14;100.00;100981.97;5051564;28;20179;-66
2023/01/05 09:07:34;;;;;;;4.03;1.20;;;;;;;11.12;100.00;100990.13;5051243;28;20033;-66
2023/01/05 09:09:59;;;;;;;5.38;0.90;;;;;;;11.08;100.00;100986.13;5051551;28;20033;-66
2023/01/05 09:12:25;;;;;;;9.60;1.23;;;;;;;11.01;100.00;100987.72;5051447;28;20501;-67
2023/01/05 09:14:53;;;;;;;6.95;1.65;;;;;;;11.07;99.69;100975.59;5051467;28;20071;-68
2023/01/05 09:17:18;;;;;;;2.72;1.05;;;;;;;11.05;98.51;100978.44;5051174;28;20048;-67
2023/01/05 09:19:44;;;;;;;4.40;1.05;;;;;;;11.10;98.35;100983.28;5050197;28;20033;-66
2023/01/05 09:22:09;;;;;;;6.85;1.27;;;;;;;11.09;98.18;100989.63;5051268;28;20076;-67
2023/01/05 09:24:34;;;;;;;5.32;1.20;;;;;;;11.10;97.27;100993.94;5051458;28;20090;-67
2023/01/05 09:27:00;;;;;;;9.82;1.58;;;;;;;11.11;97.90;100993.78;5051093;28;20140;-67
2023/01/05 09:29:25;;;;;;;7.47;1.88;;;;;;;11.13;97.68;100996.28;5051213;28;20076;-67
2023/01/05 09:31:51;;;;;;;2.65;1.27;;;;;;;11.16;97.25;100988.00;5049983;28;20037;-67
2023/01/05 09:34:17;;;;;;;5.78;1.50;;;;;;;11.18;97.40;100991.31;5051366;28;20079;-68
2023/01/05 09:36:43;;;;;;;6.03;1.05;;;;;;;11.18;96.13;100990.50;5051274;28;20120;-69
2023/01/05 09:39:08;;;;;;;5.85;1.17;;;;;;;11.23;96.02;100998.84;5051070;28;20119;-68
2023/01/05 09:41:46;;;;;;;2.75;1.10;;;;;;;11.25;95.98;101002.19;5051053;28;20025;-65
2023/01/05 09:44:31;;;;;;;6.57;1.60;;;;;;;11.34;96.10;101007.38;5051189;28;20040;-66
2023/01/05 09:47:04;;;;;;;2.47;1.02;;;;;;;11.44;93.79;101015.28;5050800;28;20041;-67
2023/01/05 09:49:32;;;;;;;6.88;1.08;;;;;;;11.51;92.25;101002.13;5049772;28;20056;-67
2023/01/05 09:52:01;;;;;;;5.10;0.75;;;;;;;11.55;91.74;100996.31;5051083;28;20029;-66
2023/01/05 09:54:31;;;;;;;5.88;1.50;;;;;;;11.68;91.78;101002.03;5051100;28;20051;-66
2023/01/05 09:56:58;;;;;;;2.88;0.98;;;;;;;11.94;90.20;100996.63;5051096;28;20108;-66
2023/01/05 09:59:29;;;;;;;2.60;1.10;;;;;;;12.35;88.07;101003.84;5050896;28;20452;-52
2023/01/05 10:01:59;;;;;;;2.88;1.15;;;;;;;12.94;85.46;101001.81;5051058;28;20422;-69
2023/01/05 10:04:28;;;;;;;5.88;1.33;;;;;;;13.42;82.10;100992.81;5051032;28;20079;-65
2023/01/05 10:07:07;;;;;;;8.68;1.40;;;;;;;13.70;79.23;100987.03;5050789;28;20433;-64
2023/01/05 10:09:38;;;;;;;14.90;1.42;;;;;;;13.61;78.78;100990.72;5054589;28;20509;-65
2023/01/05 10:15:11;;;;;;;10.75;1.73;;;;;;;13.28;81.00;100985.50;5054630;28;20034;-65
2023/01/05 10:17:38;;;;;;;4.30;1.63;;;;;;;13.08;81.29;100987.72;5054556;28;20471;-66
2023/01/05 10:20:13;;;;;;;8.52;1.60;;;;;;;12.88;82.47;100981.09;5054623;28;20035;-65
2023/01/05 10:22:51;;;;;;;8.57;1.48;;;;;;;12.86;82.60;100983.09;5054517;28;20120;-65
2023/01/05 10:25:22;;;;;;;10.57;2.00;;;;;;;12.77;82.09;100996.47;5054387;28;20047;-66
2023/01/05 10:28:29;;;;;;;4.38;1.50;;;;;;;12.63;83.06;100999.00;5054013;28;20087;-66
2023/01/05 10:30:59;;;;;;;12.95;2.35;;;;;;;12.50;84.67;100983.47;5054435;28;20067;-66
2023/01/05 10:33:27;;;;;;;9.27;3.30;;;;;;;12.36;85.29;100984.16;5054310;28;20044;-65
2023/01/05 10:36:11;;;;;;;12.07;1.80;;;;;;;12.28;85.08;100989.50;5054313;28;20107;-65
2023/01/05 10:38:59;;;;;;;13.48;2.10;;;;;;;12.23;86.30;100985.47;5053962;28;20547;-66
2023/01/05 10:41:41;;;;;;;8.48;1.60;;;;;;;12.28;85.09;100981.47;5054195;28;20490;-65
2023/01/05 10:44:27;;;;;;;12.23;2.25;;;;;;;12.29;85.38;100986.66;5058942;28;20025;-66
2023/01/05 10:46:52;;;;;;;2.90;1.20;;;;;;;12.29;84.34;100978.63;5073982;28;20077;-64
2023/01/05 10:49:28;;;;;;;4.57;1.63;;;;;;;12.36;85.25;100981.47;5074113;28;20123;-65
2023/01/05 10:51:59;;;;;;;3.88;0.90;;;;;;;12.41;83.97;100971.97;5074093;28;20032;-63
2023/01/05 10:54:47;;;;;;;3.55;1.60;;;;;;;12.48;82.24;100974.81;5073986;28;20040;-63
2023/01/05 10:57:27;;;;;;;3.78;1.15;;;;;;;12.54;82.75;100967.94;5073645;28;20093;-63
2023/01/05 11:00:05;;;;;;;7.55;2.17;;;;;;;12.49;82.71;100974.63;5073963;28;20045;-63
2023/01/05 11:02:48;;;;;;;5.57;1.52;;;;;;;12.42;82.68;100967.44;5073859;28;20059;-66
2023/01/05 11:05:26;;;;;;;16.65;2.70;;;;;;;12.45;83.82;100962.63;5073689;28;20060;-65
2023/01/05 11:07:55;;;;;;;8.25;2.15;;;;;;;12.43;83.15;100969.13;5073589;28;20443;-65
2023/01/05 11:10:22;;;;;;;8.63;1.38;;;;;;;12.43;82.87;100969.13;5073895;28;20056;-65
2023/01/05 11:12:53;;;;;;;;;;;;;;;12.36;82.54;100966.28;5074057;28;20555;-65
2023/01/05 11:15:19;;;;;;;10.25;2.28;;;;;;;12.35;83.31;100983.31;5073603;28;20283;-66
2023/01/05 11:17:45;;;;;;;8.00;1.30;;;;;;;12.27;84.71;100979.81;5073216;28;20040;-65
2023/01/05 11:20:16;;;;;;;8.55;1.65;;;;;;;12.26;85.21;100983.47;5073469;28;20431;-66
2023/01/05 11:22:44;;;;;;;14.52;1.95;;;;;;;12.26;84.59;100976.31;5073197;28;20040;-65
2023/01/05 11:25:28;;;;;;;10.70;1.35;;;;;;;12.13;84.92;100975.97;5073265;28;20422;-64
2023/01/05 11:28:16;;;;;;;8.55;1.33;;;;;;;12.15;84.63;100971.28;5073058;28;20115;-65
2023/01/05 11:30:50;;;;;;;10.65;2.42;;;;;;;12.16;85.13;100980.97;5073232;28;20124;-65
2023/01/05 11:33:23;;;;;;;3.55;1.70;;;;;;;12.18;85.47;100985.13;5096428;22;20041;-70
2023/01/05 11:35:49;;;;;;;8.95;2.05;;;;;;;12.22;86.19;100975.78;5073308;28;20448;-71
2023/01/05 11:38:27;;;;;;;8.27;2.08;;;;;;;12.14;86.56;100982.97;5072912;28;20054;-70
2023/01/05 11:40:55;;;;;;;7.72;2.00;;;;;;;12.12;85.61;100985.78;5073153;28;20060;-70
2023/01/05 11:43:23;;;;;;;13.90;2.53;;;;;;;12.08;86.55;100987.13;5073093;28;20036;-70
2023/01/05 11:45:52;;;;;;;7.18;1.52;;;;;;;12.05;86.71;100983.94;5073039;28;20094;-70
2023/01/05 11:48:25;;;;;;;6.20;1.30;;;;;;;12.03;86.64;100984.13;5072769;28;20029;-70
2023/01/05 11:50:56;;;;;;;12.15;1.90;;;;;;;12.07;86.94;100993.50;5072738;28;20569;-70
2023/01/05 11:53:34;;;;;;;13.18;1.85;;;;;;;12.32;86.26;100988.97;5072758;28;20032;-70
2023/01/05 11:56:07;;;;;;;7.88;1.48;;;;;;;12.76;83.83;100981.44;5072900;28;20431;-71
2023/01/05 11:58:46;;;;;;;13.55;2.97;;;;;;;13.30;81.10;100981.69;5072544;28;20039;-72
2023/01/05 12:01:33;;;;;;;5.10;2.33;;;;;;;14.00;77.48;100974.59;5072802;28;20040;-71
2023/01/05 12:04:25;;;;;;;14.90;2.15;;;;;;;14.27;75.07;100974.06;5072817;28;20067;-69
2023/01/05 12:07:11;;;;;;;2.55;1.27;;;;;;;13.81;74.43;100966.00;5041747;28;20070;-71
2023/01/05 12:09:39;;;;;;;6.95;1.67;;;;;;;13.55;76.80;100968.16;5072612;28;20094;-71
2023/01/05 12:12:12;;;;;;;9.93;2.88;;;;;;;13.46;77.50;100963.88;5072404;28;20477;-72
2023/01/05 12:15:04;;;;;;;4.95;1.55;;;;;;;13.22;78.40;100964.81;5072743;28;20409;-71
2023/01/05 12:17:46;;;;;;;5.13;1.58;;;;;;;12.97;80.67;100972.03;5072491;28;20862;-71
2023/01/05 12:20:30;;;;;;;9.23;1.60;;;;;;;12.82;81.30;100971.06;5072441;28;20401;-71
2023/01/05 12:23:20;;;;;;;3.45;1.73;;;;;;;12.73;82.71;100968.44;5071093;28;20032;-70
2023/01/05 12:25:57;;;;;;;4.65;1.70;;;;;;;12.68;82.92;100960.06;5046142;28;20493;-71
2023/01/05 12:28:37;;;;;;;3.13;1.75;;;;;;;12.69;83.48;100964.41;5061227;28;20060;-71
2023/01/05 12:31:21;;;;;;;6.95;1.40;;;;;;;12.73;82.82;100978.28;5061072;28;20393;-71
2023/01/05 12:34:02;;;;;;;4.68;1.48;;;;;;;12.90;83.25;100971.06;5062131;28;20079;-71
2023/01/05 12:36:34;;;;;;;9.00;1.67;;;;;;;13.02;81.93;100975.88;5062006;28;20478;-71
2023/01/05 12:39:24;;;;;;;10.13;2.15;;;;;;;13.02;80.10;100977.72;5060674;28;20075;-69
2023/01/05 12:42:13;;;;;;;8.02;2.08;;;;;;;12.99;80.60;100978.06;5062168;28;20025;-68
2023/01/05 12:44:54;;;;;;;7.53;1.33;;;;;;;13.00;80.56;100991.25;5059990;28;20028;-71
2023/01/05 12:47:19;;;;;;;9.13;1.63;;;;;;;13.01;80.78;100990.25;5060624;28;20029;-71
2023/01/05 12:50:11;;;;;;;11.30;1.23;;;;;;;12.93;79.72;100984.94;5061522;28;20469;-71
2023/01/05 12:52:47;;;;;;;7.30;1.85;;;;;;;13.06;80.14;100983.56;5046025;28;20053;-71
2023/01/05 12:55:26;;;;;;;9.10;1.45;;;;;;;13.01;78.63;100984.91;5045313;28;20032;-71
2023/01/05 12:58:12;;;;;;;4.63;1.27;;;;;;;13.03;78.43;100982.88;5062050;28;20033;-71
2023/01/05 13:00:44;;;;;;;6.78;1.52;;;;;;;12.97;79.43;100996.09;5061489;28;20020;-69
2023/01/05 13:03:31;;;;;;;4.72;1.38;;;;;;;12.93;78.43;100997.47;5061651;28;20033;-72
2023/01/05 13:06:07;;;;;;;7.07;1.52;;;;;;;12.83;77.96;100996.81;5062048;28;20036;-71
2023/01/05 13:08:39;;;;;;;7.70;1.90;;;;;;;12.77;78.40;100998.31;5044100;28;20474;-72
2023/01/05 13:11:21;;;;;;;12.05;1.65;;;;;;;12.61;78.92;100983.13;5060851;28;20033;-70
2023/01/05 13:13:50;;;;;;;7.70;1.70;;;;;;;12.58;78.35;100985.31;5061009;28;20044;-71
2023/01/05 13:16:26;;;;;;;7.80;2.15;;;;;;;12.57;78.94;100991.66;5059972;28;20045;-71
2023/01/05 13:18:59;;;;;;;11.40;2.17;;;;;;;12.48;79.19;100997.00;5059812;28;20467;-71
2023/01/05 13:21:26;;;;;;;6.20;2.92;;;;;;;12.40;80.03;100989.00;5060716;28;20112;-73
2023/01/05 13:24:03;;;;;;;10.48;1.50;;;;;;;12.46;81.41;100990.16;5060236;28;20028;-71
2023/01/05 13:26:30;;;;;;;7.73;2.40;;;;;;;12.47;81.12;100994.50;5045050;28;20098;-69
2023/01/05 13:28:55;;;;;;;12.30;2.33;;;;;;;12.51;81.60;100987.81;5040947;28;20415;-70
2023/01/05 13:31:36;;;;;;;9.38;1.48;;;;;;;12.49;81.54;100997.84;5061400;28;20028;-69
2023/01/05 13:34:39;;;;;;;8.60;2.65;;;;;;;12.54;81.55;100987.50;5060393;28;20029;-69
2023/01/05 13:37:44;;;;;;;8.48;1.58;;;;;;;12.44;81.58;100981.47;5011387;28;20040;-70
2023/01/05 13:40:30;;;;;;;14.05;3.10;;;;;;;12.49;82.00;100992.50;5061554;28;20422;-68
2023/01/05 13:43:32;;;;;;;9.02;2.10;;;;;;;12.43;82.57;100994.00;5062794;28;20024;-70
2023/01/05 13:46:35;;;;;;;10.85;2.00;;;;;;;12.50;82.06;100980.81;5066002;28;20071;-69
2023/01/05 13:49:38;;;;;;;7.68;2.53;;;;;;;12.44;83.25;100992.16;5063957;28;20021;-68
2023/01/05 13:52:22;;;;;;;8.35;1.50;;;;;;;12.36;83.34;100994.84;5046720;28;20067;-70
2023/01/05 13:54:52;;;;;;;7.80;1.67;;;;;;;12.35;82.73;100996.69;5049170;28;20029;-69
2023/01/05 13:57:25;;;;;;;10.13;2.60;;;;;;;12.35;82.64;100995.84;5045817;28;20037;-70
2023/01/05 13:59:56;;;;;;;8.15;2.50;;;;;;;12.32;82.96;101001.50;5046180;28;20049;-69
2023/01/05 14:02:35;;;;;;;7.18;1.88;;;;;;;12.30;83.21;101003.50;5060361;28;20035;-70
2023/01/05 14:05:04;;;;;;;5.13;1.58;;;;;;;12.29;83.23;100997.34;5054969;28;20049;-71
2023/01/05 14:07:30;;;;;;;8.07;1.90;;;;;;;12.27;82.40;101003.84;5054647;28;20021;-70
2023/01/05 14:09:56;;;;;;;6.80;1.80;;;;;;;12.21;82.19;101008.03;5054933;28;20103;-70
2023/01/05 14:12:25;;;;;;;6.00;1.83;;;;;;;12.20;82.12;101006.34;5054706;28;20115;-70
2023/01/05 14:15:23;;;;;;;7.85;1.35;;;;;;;12.17;82.19;101010.16;5054712;28;20040;-70
2023/01/05 14:17:57;;;;;;;12.02;1.45;;;;;;;12.15;82.81;101017.53;5059593;28;20125;-70
2023/01/05 14:20:46;;;;;;;5.57;1.63;;;;;;;12.16;82.93;101015.69;5069383;28;20413;-70
2023/01/05 14:23:28;;;;;;;3.13;1.40;;;;;;;12.09;83.61;101015.50;5059784;28;20044;-68
2023/01/05 14:25:54;;;;;;;5.43;2.05;;;;;;;12.08;83.50;101027.19;5054830;28;20029;-71
2023/01/05 14:28:22;;;;;;;10.93;1.88;;;;;;;12.09;83.83;101017.34;5054301;28;20075;-70
2023/01/05 14:30:49;;;;;;;7.00;2.47;;;;;;;12.11;83.61;101024.19;5036664;28;20041;-70
2023/01/05 14:33:19;;;;;;;10.43;1.95;;;;;;;12.09;82.95;101020.84;5054436;28;20033;-70
2023/01/05 14:35:45;;;;;;;5.78;1.95;;;;;;;12.09;83.40;101028.88;5054466;28;20083;-69
2023/01/05 14:38:16;;;;;;;9.00;2.20;;;;;;;12.14;83.22;101031.88;5054166;28;20083;-69
2023/01/05 14:40:47;;;;;;;10.52;2.20;;;;;;;12.15;83.19;101028.22;5054296;28;20041;-69
2023/01/05 14:43:34;;;;;;;7.40;1.55;;;;;;;12.07;82.69;101044.22;5054185;28;20037;-69
2023/01/05 14:46:16;;;;;;;3.65;1.83;;;;;;;12.04;82.57;101041.03;5054246;28;20575;-70
2023/01/05 14:48:57;;;;;;;7.82;1.98;;;;;;;12.05;82.84;101043.53;5053599;28;20449;-69
2023/01/05 14:51:28;;;;;;;8.77;1.40;;;;;;;12.05;82.93;101038.19;5035986;28;20504;-69
2023/01/05 14:53:57;;;;;;;13.32;2.25;;;;;;;12.07;82.95;101040.72;5053710;28;20090;-70
2023/01/05 14:56:27;;;;;;;3.60;1.75;;;;;;;12.02;83.38;101049.22;5054208;28;20048;-69
2023/01/05 14:58:58;;;;;;;5.00;1.27;;;;;;;12.04;83.52;101046.38;5053782;28;20033;-70
2023/01/05 15:01:49;;;;;;;4.13;1.17;;;;;;;12.01;83.22;101046.72;5053842;28;20028;-70
2023/01/05 15:04:22;;;;;;;4.75;1.60;;;;;;;11.97;83.24;101040.00;5053947;28;20033;-69
2023/01/05 15:07:15;;;;;;;9.43;1.67;;;;;;;11.98;83.35;101045.19;5036289;28;20047;-69
2023/01/05 15:10:05;;;;;;;6.70;1.73;;;;;;;11.97;83.29;101038.19;5053779;28;20116;-69
2023/01/05 15:12:46;;;;;;;9.13;1.73;;;;;;;11.96;83.55;101039.19;5053485;28;20079;-70
2023/01/05 15:15:14;;;;;;;4.55;1.08;;;;;;;11.91;83.65;101034.31;5053694;28;20124;-69
2023/01/05 15:18:06;;;;;;;7.57;1.83;;;;;;;11.90;83.52;101039.84;5053199;28;20040;-69
2023/01/05 15:21:02;;;;;;;3.88;1.50;;;;;;;11.90;82.35;101039.84;5053676;28;20057;-69
2023/01/05 15:23:54;;;;;;;5.25;1.42;;;;;;;11.91;82.50;101033.50;5035638;28;20040;-68
2023/01/05 15:26:29;;;;;;;3.92;1.58;;;;;;;11.90;82.75;101039.84;5053651;28;20120;-69
2023/01/05 15:29:26;;;;;;;4.00;1.42;;;;;;;11.92;82.45;101043.16;5053256;28;20044;-70
2023/01/05 15:31:56;;;;;;;6.93;1.90;;;;;;;11.93;82.08;101042.16;5053212;28;20479;-68
2023/01/05 15:35:03;;;;;;;8.10;1.63;;;;;;;11.86;82.21;101046.47;5053439;28;20036;-69
2023/01/05 15:37:33;;;;;;;6.30;1.50;;;;;;;11.84;82.16;101035.13;5052885;28;20493;-68
2023/01/05 15:40:03;;;;;;;3.13;1.58;;;;;;;11.85;81.80;101036.81;5053251;28;20025;-71
2023/01/05 15:42:47;;;;;;;9.48;1.65;;;;;;;11.84;81.88;101029.81;5052916;28;20452;-69
2023/01/05 15:45:17;;;;;;;8.68;1.83;;;;;;;11.85;81.17;101034.97;5053097;28;20036;-68
2023/01/05 15:47:43;;;;;;;11.68;1.63;;;;;;;11.85;81.00;101034.13;5052723;28;20041;-69
2023/01/05 15:50:18;;;;;;;5.10;1.50;;;;;;;11.81;81.54;101035.47;5052903;28;20045;-69
2023/01/05 15:52:52;;;;;;;6.47;1.73;;;;;;;11.78;81.57;101015.22;5052746;28;20045;-69
2023/01/05 15:55:18;;;;;;;4.45;1.30;;;;;;;11.76;81.87;101029.75;5052885;28;20171;-69
2023/01/05 15:58:02;;;;;;;9.07;1.75;;;;;;;11.74;81.94;101029.09;5034637;28;20124;-70
2023/01/05 16:00:31;;;;;;;9.57;1.60;;;;;;;11.72;82.14;101031.06;5052709;28;20048;-69
2023/01/05 16:02:57;;;;;;;10.38;1.55;;;;;;;11.74;82.09;101040.59;5052635;28;20060;-69
2023/01/05 16:05:32;;;;;;;9.88;2.35;;;;;;;11.70;82.09;101044.56;5051785;28;20072;-69
2023/01/05 16:08:07;;;;;;;12.15;1.35;;;;;;;11.71;81.78;101043.56;5052643;28;20387;-70
2023/01/05 16:10:39;;;;;;;11.05;1.88;;;;;;;11.69;82.76;101034.91;5052750;28;20040;-70
2023/01/05 16:13:09;;;;;;;4.32;1.50;;;;;;;11.64;83.78;101037.22;5052670;28;20490;-69
2023/01/05 16:15:36;;;;;;;5.93;1.10;;;;;;;11.63;84.95;101031.03;5052550;28;20033;-69
2023/01/05 16:18:06;;;;;;;12.57;2.35;;;;;;;11.59;85.51;101037.69;5052055;28;20041;-69
2023/01/05 16:20:32;;;;;;;5.63;1.30;;;;;;;11.53;86.05;101032.97;5052366;28;20029;-69
2023/01/05 16:23:18;;;;;;;4.53;1.55;;;;;;;11.50;85.42;101033.31;5052381;28;20075;-69
2023/01/05 16:25:49;;;;;;;6.18;1.77;;;;;;;11.51;85.08;101031.47;5052370;28;20182;-70
2023/01/05 16:28:17;;;;;;;9.15;1.85;;;;;;;11.50;84.19;101029.81;5051949;28;20113;-69
2023/01/05 16:30:45;;;;;;;6.40;1.90;;;;;;;11.48;84.74;101029.97;5052052;28;20037;-69
2023/01/05 16:33:10;;;;;;;7.25;1.52;;;;;;;11.49;84.23;101028.97;5052214;28;20183;-69
2023/01/05 16:35:47;;;;;;;6.53;1.77;;;;;;;11.45;84.96;101019.63;5051966;28;20119;-69
2023/01/05 16:38:25;;;;;;;7.43;1.42;;;;;;;11.46;84.51;101017.78;5051777;28;20043;-69
2023/01/05 16:41:01;;;;;;;6.38;1.35;;;;;;;11.46;84.16;101018.63;5052042;28;20037;-69
2023/01/05 16:43:35;;;;;;;4.57;1.83;;;;;;;11.46;84.18;101017.78;5051859;28;20044;-69
2023/01/05 16:46:15;;;;;;;7.53;1.63;;;;;;;11.44;84.62;101019.78;5051979;28;20045;-69
2023/01/05 16:48:41;;;;;;;7.60;1.85;;;;;;;11.43;84.47;101021.63;5051534;28;20397;-69
2023/01/05 16:51:36;;;;;;;4.13;1.40;;;;;;;11.46;84.19;101018.63;5051806;28;20017;-69
2023/01/05 16:54:09;;;;;;;10.27;1.55;;;;;;;11.44;84.53;101017.13;5048706;28;20041;-70
2023/01/05 16:56:34;;;;;;;4.80;1.50;;;;;;;11.40;84.19;101017.41;5034067;28;20029;-69
2023/01/05 16:59:02;;;;;;;10.50;2.25;;;;;;;11.40;84.54;101016.59;5051551;28;20036;-69
2023/01/05 17:01:40;;;;;;;;;;;;;;;11.43;84.35;101029.63;5052036;28;20082;-69
2023/01/05 17:04:10;;;;;;;2.65;1.33;;;;;;;11.44;84.23;101023.28;5051865;28;19920;-70
2023/01/05 17:06:36;;;;;;;3.20;1.70;;;;;;;11.40;84.54;101016.59;5051861;28;20024;-70
2023/01/05 17:09:10;;;;;;;3.72;1.50;;;;;;;11.41;84.29;101016.44;5051677;28;20040;-69
2023/01/05 17:11:37;;;;;;;3.33;1.30;;;;;;;11.39;84.66;101015.75;5051552;28;20037;-69
2023/01/05 17:14:03;;;;;;;7.75;1.70;;;;;;;11.38;85.43;101015.91;5051723;28;20028;-69